createdAt,value
2019-06-10T00:01:16.537Z,82.60
2019-06-10T00:03:47.184Z,82.30
2019-06-10T00:06:20.809Z,81.80
2019-06-10T00:08:50.604Z,81.80
2019-06-10T00:11:21.461Z,81.50
2019-06-10T00:13:52.166Z,81.50
2019-06-10T00:16:23.197Z,82.10
2019-06-10T00:18:53.977Z,81.60
2019-06-10T00:21:24.747Z,81.10
2019-06-10T00:23:55.385Z,81.10
2019-06-10T00:26:26.087Z,81.40
2019-06-10T00:28:57.749Z,81.40
2019-06-10T00:31:31.079Z,81.00
2019-06-10T00:34:02.983Z,81.10
2019-06-10T00:36:33.026Z,80.90
2019-06-10T00:39:05.589Z,80.60
2019-06-10T00:41:35.691Z,79.60
2019-06-10T00:44:06.985Z,80.20
2019-06-10T00:46:40.740Z,79.70
2019-06-10T00:49:14.466Z,79.10
2019-06-10T00:51:42.464Z,80.90
2019-06-10T00:54:15.493Z,78.50
2019-06-10T00:56:45.152Z,79.30
2019-06-10T00:59:15.856Z,79.20
2019-06-10T01:01:46.493Z,79.20
2019-06-10T01:04:17.207Z,78.00
2019-06-10T01:06:48.032Z,78.80
2019-06-10T01:09:19.034Z,78.40
2019-06-10T01:11:51.682Z,77.10
2019-06-10T01:14:22.187Z,76.50
2019-06-10T01:16:52.845Z,76.50
2019-06-10T01:19:23.848Z,76.90
2019-06-10T01:21:54.516Z,76.80
2019-06-10T01:24:25.188Z,76.70
2019-06-10T01:26:55.965Z,76.70
2019-06-10T01:29:31.292Z,77.10
2019-06-10T01:32:01.742Z,75.90
2019-06-10T01:34:32.630Z,76.00
2019-06-10T01:37:03.294Z,76.30
2019-06-10T01:39:34.140Z,76.30
2019-06-10T01:42:06.117Z,74.90
2019-06-10T01:44:36.889Z,75.80
2019-06-10T01:47:08.700Z,74.90
2019-06-10T01:49:41.211Z,74.40
2019-06-10T01:52:12.435Z,74.50
2019-06-10T01:54:43.880Z,73.20
2019-06-10T01:57:15.731Z,73.30
2019-06-10T01:59:46.611Z,72.70
2019-06-10T02:02:19.342Z,72.40
2019-06-10T02:04:51.752Z,72.90
2019-06-10T02:07:23.196Z,72.50
2019-06-10T02:09:53.992Z,71.90
2019-06-10T02:12:24.969Z,71.60
2019-06-10T02:14:55.620Z,71.50
2019-06-10T02:17:28.007Z,71.90
2019-06-10T02:19:58.270Z,70.90
2019-06-10T02:22:31.828Z,70.90
2019-06-10T02:25:02.674Z,70.80
2019-06-10T02:27:33.456Z,70.80
2019-06-10T02:30:13.618Z,70.40
2019-06-10T02:32:37.805Z,71.20
2019-06-10T02:35:14.670Z,70.60
2019-06-10T02:37:44.056Z,69.80
2019-06-10T02:40:16.663Z,69.20
2019-06-10T02:42:48.750Z,68.50
2019-06-10T02:45:23.713Z,68.40
2019-06-10T02:47:53.297Z,67.40
2019-06-10T02:50:32.433Z,67.70
2019-06-10T02:52:58.805Z,68.50
2019-06-10T02:55:34.195Z,67.10
2019-06-10T02:58:03.971Z,67.90
2019-06-10T03:00:42.632Z,68.20
2019-06-10T03:03:06.074Z,67.70
2019-06-10T03:05:40.787Z,67.40
2019-06-10T03:08:08.803Z,66.90
2019-06-10T03:10:39.493Z,67.80
2019-06-10T03:13:12.561Z,65.70
2019-06-10T03:15:43.448Z,64.90
2019-06-10T03:18:15.729Z,64.40
2019-06-10T03:20:46.465Z,65.10
2019-06-10T03:23:17.979Z,66.90
2019-06-10T03:25:50.017Z,65.20
2019-06-10T03:28:23.921Z,65.80
2019-06-10T03:30:58.642Z,66.40
2019-06-10T03:33:34.604Z,66.10
2019-06-10T03:35:58.817Z,65.00
2019-06-10T03:38:29.475Z,65.80
2019-06-10T03:41:00.250Z,63.00
2019-06-10T03:43:33.027Z,63.60
2019-06-10T03:46:03.422Z,63.80
2019-06-10T03:48:34.316Z,63.40
2019-06-10T03:51:05.036Z,64.30
2019-06-10T03:53:35.765Z,60.90
2019-06-10T03:56:07.725Z,61.70
2019-06-10T03:58:38.572Z,61.10
2019-06-10T04:01:12.104Z,61.10
2019-06-10T04:03:42.810Z,61.70
2019-06-10T04:06:14.127Z,61.50
2019-06-10T04:08:45.136Z,60.30
2019-06-10T04:11:16.014Z,61.00
2019-06-10T04:13:54.494Z,60.10
2019-06-10T04:16:19.686Z,60.00
2019-06-10T04:18:53.260Z,62.00
2019-06-10T04:21:34.380Z,61.70
2019-06-10T04:24:05.371Z,60.40
2019-06-10T04:26:37.394Z,60.40
2019-06-10T04:29:08.205Z,59.60
2019-06-10T04:31:42.470Z,59.60
2019-06-10T04:34:13.498Z,60.20
2019-06-10T04:36:44.615Z,59.70
2019-06-10T04:39:15.285Z,59.90
2019-06-10T04:41:46.144Z,61.10
2019-06-10T04:44:16.872Z,60.70
2019-06-10T04:46:47.866Z,60.00
2019-06-10T04:49:18.721Z,61.10
2019-06-10T04:51:49.680Z,61.00
2019-06-10T04:54:21.394Z,60.80
2019-06-10T04:56:52.895Z,58.60
2019-06-10T04:59:25.863Z,60.00
2019-06-10T05:01:55.748Z,59.30
2019-06-10T05:04:27.139Z,59.00
2019-06-10T05:06:58.425Z,58.20
2019-06-10T05:09:29.419Z,58.50
2019-06-10T05:12:02.850Z,58.90
2019-06-10T05:14:33.697Z,59.90
2019-06-10T05:17:04.436Z,58.00
2019-06-10T05:19:35.158Z,58.50
2019-06-10T05:22:05.816Z,57.00
2019-06-10T05:24:36.446Z,59.00
2019-06-10T05:27:07.139Z,58.00
2019-06-10T05:29:37.793Z,57.00
2019-06-10T05:32:08.863Z,56.80
2019-06-10T05:34:39.589Z,55.80
2019-06-10T05:37:12.018Z,55.60
2019-06-10T05:39:42.491Z,56.40
2019-06-10T05:42:13.142Z,57.20
2019-06-10T05:44:44.365Z,57.20
2019-06-10T05:47:15.126Z,57.80
2019-06-10T05:49:46.203Z,55.90
2019-06-10T05:52:17.127Z,56.40
2019-06-10T05:54:48.055Z,56.40
2019-06-10T05:57:18.780Z,56.80
2019-06-10T05:59:49.667Z,57.90
2019-06-10T06:02:22.318Z,57.90
2019-06-10T06:04:53.065Z,55.80
2019-06-10T06:07:24.990Z,54.90
2019-06-10T06:09:55.703Z,56.00
2019-06-10T06:12:27.365Z,55.60
2019-06-10T06:14:58.245Z,55.90
2019-06-10T06:17:32.772Z,55.90
2019-06-10T06:20:02.914Z,55.10
2019-06-10T06:22:35.235Z,55.50
2019-06-10T06:25:07.979Z,57.10
2019-06-10T06:27:38.635Z,56.90
2019-06-10T06:30:13.763Z,54.50
2019-06-10T06:32:43.569Z,56.10
2019-06-10T06:35:13.877Z,55.60
2019-06-10T06:37:45.178Z,56.20
2019-06-10T06:40:16.461Z,55.60
2019-06-10T06:42:47.392Z,55.20
2019-06-10T06:45:19.556Z,56.10
2019-06-10T06:47:52.448Z,56.80
2019-06-10T06:50:25.407Z,56.10
2019-06-10T06:53:19.717Z,55.10
2019-06-10T06:55:26.827Z,55.30
2019-06-10T06:57:57.519Z,54.90
2019-06-10T07:00:48.945Z,57.00
2019-06-10T07:03:04.174Z,57.10
2019-06-10T07:05:35.970Z,53.90
2019-06-10T07:08:07.625Z,54.40
2019-06-10T07:10:38.812Z,55.90
2019-06-10T07:13:09.667Z,55.20
2019-06-10T07:15:46.960Z,53.90
2019-06-10T07:18:15.226Z,52.90
2019-06-10T07:20:46.103Z,54.70
2019-06-10T07:23:18.296Z,53.80
2019-06-10T07:25:49.054Z,53.00
2019-06-10T07:28:20.142Z,54.80
2019-06-10T07:30:52.702Z,55.60
2019-06-10T07:33:23.304Z,53.90
2019-06-10T07:35:56.611Z,54.60
2019-06-10T07:38:26.541Z,53.20
2019-06-10T07:40:57.505Z,54.20
2019-06-10T07:43:28.266Z,52.80
2019-06-10T07:45:59.058Z,52.20
2019-06-10T07:48:29.832Z,51.80
2019-06-10T07:51:02.708Z,51.80
2019-06-10T07:53:34.386Z,51.90
2019-06-10T07:56:05.149Z,52.20
2019-06-10T07:58:37.179Z,53.40
2019-06-10T08:01:08.066Z,52.10
2019-06-10T08:03:39.850Z,53.20
2019-06-10T08:06:12.660Z,50.70
2019-06-10T08:08:45.277Z,52.80
2019-06-10T08:11:14.930Z,52.50
2019-06-10T08:13:46.465Z,52.00
2019-06-10T08:16:17.858Z,52.90
2019-06-10T08:19:16.066Z,51.80
2019-06-10T08:21:22.863Z,53.00
2019-06-10T08:23:54.471Z,52.00
2019-06-10T08:26:25.537Z,51.40
2019-06-10T08:28:56.483Z,50.60
2019-06-10T08:31:27.344Z,50.80
2019-06-10T08:33:58.365Z,49.40
2019-06-10T08:36:29.279Z,50.00
2019-06-10T08:39:00.129Z,52.10
2019-06-10T08:41:32.266Z,50.10
2019-06-10T08:44:03.614Z,48.80
2019-06-10T08:46:34.447Z,49.80
2019-06-10T08:51:37.101Z,48.90
2019-06-10T08:54:08.274Z,49.80
2019-06-10T08:56:40.070Z,50.20
2019-06-10T08:59:12.425Z,51.00
2019-06-10T09:01:48.324Z,50.60
2019-06-10T09:04:15.524Z,50.30
2019-06-10T09:06:49.559Z,50.30
2019-06-10T09:09:18.938Z,50.90
2019-06-10T09:11:52.015Z,50.60
2019-06-10T09:14:23.496Z,50.40
2019-06-10T09:16:54.630Z,50.10
2019-06-10T09:19:25.399Z,50.90
2019-06-10T09:21:56.609Z,52.00
2019-06-10T09:24:27.663Z,51.70
2019-06-10T09:26:58.553Z,51.30
2019-06-10T09:29:29.235Z,51.80
2019-06-10T09:32:02.034Z,48.60
2019-06-10T09:34:33.111Z,49.40
2019-06-10T09:37:04.159Z,50.60
2019-06-10T09:39:35.200Z,50.40
2019-06-10T09:42:06.722Z,48.90
2019-06-10T09:44:37.845Z,49.80
2019-06-10T09:47:08.862Z,49.30
2019-06-10T09:49:41.254Z,50.30
2019-06-10T09:52:13.447Z,49.00
2019-06-10T09:54:48.813Z,49.50
2019-06-10T09:57:16.637Z,49.90
2019-06-10T09:59:51.395Z,49.60
2019-06-10T10:02:19.517Z,50.10
2019-06-10T10:04:53.882Z,50.30
2019-06-10T10:07:22.737Z,50.60
2019-06-10T10:09:57.229Z,51.30
2019-06-10T10:12:26.087Z,51.30
2019-06-10T10:14:56.729Z,51.20
2019-06-10T10:17:27.445Z,50.90
2019-06-10T10:19:58.107Z,50.80
2019-06-10T10:22:29.036Z,51.70
2019-06-10T10:25:02.751Z,50.60
2019-06-10T10:27:32.313Z,51.10
2019-06-10T10:30:03.915Z,51.10
2019-06-10T10:32:34.719Z,52.30
2019-06-10T10:35:06.488Z,52.70
2019-06-10T10:37:37.221Z,52.50
2019-06-10T10:40:08.359Z,52.50
2019-06-10T10:42:45.008Z,52.30
2019-06-10T10:45:13.260Z,52.00
2019-06-10T10:47:44.978Z,52.70
2019-06-10T10:50:16.048Z,52.70
2019-06-10T10:52:48.193Z,52.70
2019-06-10T10:55:22.479Z,53.30
2019-06-10T10:57:55.753Z,53.30
2019-06-10T11:00:26.356Z,53.90
2019-06-10T11:02:57.223Z,54.10
2019-06-10T11:05:33.850Z,53.50
2019-06-10T11:08:04.860Z,54.00
2019-06-10T11:10:36.115Z,54.00
2019-06-10T11:13:09.042Z,53.80
2019-06-10T11:15:39.724Z,54.30
2019-06-10T11:18:12.599Z,53.70
2019-06-10T11:20:45.210Z,54.30
2019-06-10T11:23:16.091Z,54.40
2019-06-10T11:25:47.766Z,54.10
2019-06-10T11:28:18.526Z,54.50
2019-06-10T11:30:55.462Z,54.20
2019-06-10T11:33:24.262Z,54.80
2019-06-10T11:35:57.477Z,55.20
2019-06-10T11:38:27.021Z,55.30
2019-06-10T11:40:59.966Z,55.50
2019-06-10T11:43:32.878Z,55.50
2019-06-10T11:46:06.978Z,55.80
2019-06-10T11:48:37.417Z,55.40
2019-06-10T11:51:12.965Z,55.50
2019-06-10T11:53:44.180Z,56.10
2019-06-10T11:56:15.419Z,55.90
2019-06-10T11:58:47.698Z,56.50
2019-06-10T12:01:18.816Z,56.10
2019-06-10T12:03:51.110Z,56.70
2019-06-10T12:06:22.877Z,57.00
2019-06-10T12:09:02.819Z,57.10
2019-06-10T12:11:34.221Z,56.90
2019-06-10T12:14:04.841Z,57.10
2019-06-10T12:19:07.290Z,57.10
2019-06-10T12:21:38.035Z,57.80
2019-06-10T12:24:08.757Z,57.70
2019-06-10T12:26:43.231Z,57.70
2019-06-10T12:29:12.435Z,58.00
2019-06-10T12:31:43.332Z,58.70
2019-06-10T12:34:15.226Z,58.40
2019-06-10T12:36:45.961Z,59.00
2019-06-10T12:39:17.426Z,59.00
2019-06-10T12:41:48.480Z,59.40
2019-06-10T12:44:19.167Z,58.10
2019-06-10T12:46:53.315Z,58.70
2019-06-10T12:49:22.017Z,58.70
2019-06-10T12:51:55.944Z,59.20
2019-06-10T12:54:28.118Z,60.10
2019-06-10T12:56:59.945Z,60.80
2019-06-10T12:59:32.466Z,62.10
2019-06-10T13:04:36.230Z,65.60
2019-06-10T13:07:12.386Z,68.00
2019-06-10T13:09:43.880Z,68.50
2019-06-10T13:12:14.194Z,70.30
2019-06-10T13:14:45.016Z,70.80
2019-06-10T13:17:15.970Z,72.00
2019-06-10T13:19:46.780Z,72.70
2019-06-10T13:22:17.448Z,71.70
2019-06-10T13:24:48.200Z,73.30
2019-06-10T13:27:18.946Z,72.80
2019-06-10T13:29:49.620Z,73.60
2019-06-10T13:32:21.535Z,73.30
2019-06-10T13:34:52.797Z,73.80
2019-06-10T13:37:23.577Z,73.40
2019-06-10T13:39:54.258Z,73.40
2019-06-10T13:42:24.933Z,73.30
2019-06-10T13:44:55.805Z,73.90
2019-06-10T13:47:26.487Z,75.00
2019-06-10T13:49:58.877Z,75.00
2019-06-10T13:52:29.159Z,75.90
2019-06-10T13:55:01.306Z,75.30
2019-06-10T13:57:32.458Z,75.40
2019-06-10T14:00:05.626Z,75.70
2019-06-10T14:02:35.343Z,76.10
2019-06-10T14:05:12.748Z,75.80
2019-06-10T14:07:40.282Z,75.90
2019-06-10T14:10:17.794Z,75.80
2019-06-10T14:12:47.690Z,75.90
2019-06-10T14:15:17.190Z,75.80
2019-06-10T14:17:49.296Z,76.00
2019-06-10T14:20:20.060Z,75.70
2019-06-10T14:22:52.831Z,76.50
2019-06-10T14:25:23.202Z,75.70
2019-06-10T14:27:54.506Z,75.00
2019-06-10T14:30:25.163Z,74.80
2019-06-10T14:32:55.858Z,74.70
2019-06-10T14:35:26.975Z,74.60
2019-06-10T14:37:57.724Z,74.50
2019-06-10T14:40:28.433Z,74.40
2019-06-10T14:42:59.078Z,74.30
2019-06-10T14:45:29.848Z,75.10
2019-06-10T14:48:02.736Z,74.00
2019-06-10T14:50:32.545Z,74.00
2019-06-10T14:53:03.224Z,74.30
2019-06-10T14:55:34.084Z,75.00
2019-06-10T14:58:05.373Z,75.00
2019-06-10T15:00:36.840Z,74.30
2019-06-10T15:03:09.383Z,74.40
2019-06-10T15:05:39.531Z,74.60
2019-06-10T15:08:12.467Z,74.60
2019-06-10T15:10:42.978Z,74.50
2019-06-10T15:13:13.894Z,74.50
2019-06-10T15:15:44.595Z,74.80
2019-06-10T15:18:17.979Z,74.90
2019-06-10T15:20:47.322Z,75.20
2019-06-10T15:23:19.122Z,75.40
2019-06-10T15:28:23.656Z,75.60
2019-06-10T15:30:54.826Z,76.20
2019-06-10T15:33:26.469Z,76.60
2019-06-10T15:36:17.400Z,76.70
2019-06-10T15:38:58.759Z,77.00
2019-06-10T15:46:32.226Z,77.50
2019-06-10T15:49:02.327Z,78.10
2019-06-10T15:51:33.954Z,77.70
2019-06-10T15:54:05.032Z,77.70
2019-06-10T15:56:45.630Z,77.80
2019-06-10T15:59:09.007Z,78.10
2019-06-10T16:01:43.730Z,78.20
2019-06-10T16:04:17.212Z,78.30
2019-06-10T16:06:47.730Z,78.20
2019-06-10T16:09:18.481Z,78.60
2019-06-10T16:11:49.412Z,78.40
2019-06-10T16:14:25.469Z,79.10
2019-06-10T16:16:56.382Z,79.20
2019-06-10T16:19:27.317Z,78.80
2019-06-10T16:21:58.059Z,78.70
2019-06-10T16:24:29.512Z,79.00
2019-06-10T16:27:00.485Z,79.70
2019-06-10T16:29:33.277Z,79.70
2019-06-10T16:32:03.159Z,80.10
2019-06-10T16:34:34.045Z,80.30
2019-06-10T16:37:05.651Z,80.70
2019-06-10T16:39:36.429Z,79.90
2019-06-10T16:42:07.912Z,81.00
2019-06-10T16:44:39.590Z,81.10
2019-06-10T16:47:12.946Z,81.40
2019-06-10T16:49:43.701Z,81.30
2019-06-10T16:52:19.970Z,80.80
2019-06-10T16:54:52.496Z,80.50
2019-06-10T16:57:24.335Z,81.20
2019-06-10T16:59:54.681Z,81.80
2019-06-10T17:02:26.712Z,81.60
2019-06-10T17:04:58.473Z,81.70
2019-06-10T17:07:29.625Z,81.10
2019-06-10T17:10:02.351Z,81.40
2019-06-10T17:12:33.097Z,82.10
2019-06-10T17:15:03.768Z,82.40
2019-06-10T17:20:05.295Z,82.20
2019-06-10T17:22:36.004Z,82.50
2019-06-10T17:27:37.327Z,82.40
2019-06-10T17:30:08.170Z,83.30
2019-06-10T17:32:38.851Z,82.40
2019-06-10T17:35:09.627Z,83.10
2019-06-10T17:37:43.068Z,82.40
2019-06-10T17:40:12.968Z,82.50
2019-06-10T17:42:43.801Z,83.20
2019-06-10T17:45:15.573Z,83.20
2019-06-10T17:47:46.571Z,83.20
2019-06-10T17:50:17.339Z,83.10
2019-06-10T17:52:49.947Z,83.20
2019-06-10T17:55:23.322Z,83.20
2019-06-10T17:57:52.656Z,83.30
2019-06-10T18:00:25.017Z,83.20
2019-06-10T18:02:55.343Z,83.20
2019-06-10T18:05:27.176Z,83.30
2019-06-10T18:07:58.004Z,83.20
2019-06-10T18:10:29.715Z,83.30
2019-06-10T18:13:12.775Z,83.50
2019-06-10T18:15:35.431Z,83.50
2019-06-10T18:18:04.476Z,83.50
2019-06-10T18:20:36.971Z,83.60
2019-06-10T18:23:07.465Z,83.80
2019-06-10T18:25:38.146Z,83.60
2019-06-10T18:28:08.798Z,83.80
2019-06-10T18:30:39.589Z,83.80
2019-06-10T18:33:10.250Z,83.80
2019-06-10T18:35:42.310Z,83.90
2019-06-10T18:38:13.128Z,83.90
2019-06-10T18:40:43.836Z,84.00
2019-06-10T18:43:14.510Z,84.10
2019-06-10T18:45:45.205Z,84.10
2019-06-10T18:48:15.945Z,84.30
2019-06-10T18:50:46.637Z,84.60
2019-06-10T18:53:17.266Z,84.70
2019-06-10T18:55:50.849Z,84.80
2019-06-10T18:58:22.183Z,84.80
2019-06-10T19:01:00.780Z,84.80
2019-06-10T19:03:24.227Z,84.90
2019-06-10T19:05:55.325Z,85.00
2019-06-10T19:08:25.974Z,85.20
2019-06-10T19:10:57.177Z,84.40
2019-06-10T19:13:27.871Z,85.00
2019-06-10T19:15:58.659Z,85.20
2019-06-10T19:18:29.937Z,85.10
2019-06-10T19:21:03.576Z,85.00
2019-06-10T19:23:36.347Z,84.90
2019-06-10T19:26:06.396Z,84.60
2019-06-10T19:28:38.532Z,84.60
2019-06-10T19:31:09.301Z,84.40
2019-06-10T19:33:41.336Z,83.80
2019-06-10T19:36:13.064Z,84.40
2019-06-10T19:38:44.398Z,84.40
2019-06-10T19:41:15.533Z,84.30
2019-06-10T19:43:46.196Z,84.50
2019-06-10T19:46:16.985Z,84.30
2019-06-10T19:48:56.835Z,83.20
2019-06-10T19:51:19.719Z,83.80
2019-06-10T19:53:52.546Z,83.80
2019-06-10T19:56:25.692Z,83.70
2019-06-10T19:58:55.165Z,83.70
2019-06-10T20:01:25.822Z,83.70
2019-06-10T20:03:56.494Z,83.90
2019-06-10T20:06:27.187Z,84.00
2019-06-10T20:08:57.852Z,83.60
2019-06-10T20:11:28.565Z,84.40
2019-06-10T20:13:59.324Z,84.50
2019-06-10T20:16:30.013Z,84.50
2019-06-10T20:19:02.858Z,84.30
2019-06-10T20:21:32.981Z,84.90
2019-06-10T20:24:03.651Z,85.20
2019-06-10T20:26:34.361Z,85.30
2019-06-10T20:29:05.048Z,85.60
2019-06-10T20:31:35.816Z,85.30
2019-06-10T20:34:06.501Z,84.80
2019-06-10T20:36:37.415Z,85.50
2019-06-10T20:41:39.546Z,84.80
2019-06-10T20:44:10.275Z,85.30
2019-06-10T20:46:43.074Z,85.40
2019-06-10T20:49:13.531Z,84.50
2019-06-10T20:51:58.706Z,85.30
2019-06-10T20:54:16.364Z,84.60
2019-06-10T20:56:49.146Z,84.50
2019-06-10T20:59:22.375Z,85.30
2019-06-10T21:01:53.413Z,86.20
2019-06-10T21:04:23.270Z,85.50
2019-06-10T21:06:54.579Z,85.60
2019-06-10T21:09:27.907Z,85.70
2019-06-10T21:11:58.596Z,85.90
2019-06-10T21:14:29.367Z,85.90
2019-06-10T21:17:00.115Z,85.10
2019-06-10T21:19:32.987Z,85.90
2019-06-10T21:22:03.088Z,86.00
2019-06-10T21:24:33.826Z,85.90
2019-06-10T21:27:05.648Z,85.80
2019-06-10T21:29:37.574Z,86.00
2019-06-10T21:32:08.259Z,85.70
2019-06-10T21:34:43.138Z,84.80
2019-06-10T21:37:12.683Z,84.70
2019-06-10T21:39:44.771Z,84.40
2019-06-10T21:42:15.691Z,85.30
2019-06-10T21:44:46.537Z,85.30
2019-06-10T21:47:17.386Z,84.70
2019-06-10T21:49:48.406Z,84.80
2019-06-10T21:52:19.475Z,84.90
2019-06-10T21:54:52.792Z,86.00
2019-06-10T21:57:24.705Z,86.10
2019-06-10T21:59:57.153Z,85.30
2019-06-10T22:02:28.686Z,86.00
2019-06-10T22:04:59.360Z,85.70
2019-06-10T22:07:30.002Z,86.50
2019-06-10T22:10:03.742Z,86.40
2019-06-10T22:12:34.425Z,86.50
2019-06-10T22:15:06.373Z,86.70
2019-06-10T22:17:37.108Z,87.00
2019-06-10T22:20:07.972Z,86.50
2019-06-10T22:22:38.652Z,87.20
2019-06-10T22:25:13.009Z,87.30
2019-06-10T22:27:42.584Z,87.40
2019-06-10T22:30:13.813Z,86.80
2019-06-10T22:32:45.227Z,87.60
2019-06-10T22:35:15.908Z,87.70
2019-06-10T22:37:47.695Z,87.70
2019-06-10T22:40:22.440Z,87.60
2019-06-10T22:42:55.139Z,87.60
2019-06-10T22:45:26.523Z,87.30
2019-06-10T22:47:59.584Z,88.10
2019-06-10T22:50:32.339Z,88.50
2019-06-10T22:53:03.940Z,88.60
2019-06-10T22:55:39.635Z,88.50
2019-06-10T22:58:10.325Z,88.70
2019-06-10T23:00:43.499Z,88.70
2019-06-10T23:03:13.255Z,88.60
2019-06-10T23:05:44.084Z,88.70
2019-06-10T23:08:14.764Z,88.00
2019-06-10T23:10:46.721Z,88.70
2019-06-10T23:13:18.646Z,88.80
2019-06-10T23:15:53.940Z,88.30
2019-06-10T23:18:24.062Z,88.00
2019-06-10T23:20:57.451Z,88.00
2019-06-10T23:23:28.021Z,88.60
2019-06-10T23:25:58.686Z,88.20
2019-06-10T23:28:32.571Z,89.50
2019-06-10T23:31:04.921Z,89.40
2019-06-10T23:33:34.795Z,89.20
2019-06-10T23:36:05.463Z,88.40
2019-06-10T23:38:36.117Z,89.00
2019-06-10T23:41:06.801Z,88.80
2019-06-10T23:43:37.475Z,88.50
2019-06-10T23:46:08.125Z,88.10
2019-06-10T23:48:38.797Z,88.30
2019-06-10T23:51:11.719Z,87.80
2019-06-10T23:53:41.484Z,88.00
2019-06-10T23:56:12.810Z,88.10
2019-06-10T23:58:43.645Z,87.90
